CZ-0108 weather

Bezno Airstrip
Bezno, Central Bohemian Region, Czechia

Public forecast

Using degrees Celsius for public forecast. Weather courtesy of forecast.io.

METAR (pilot weather report)

Closest report is Kbely Air Base, 17.4 nm (32.2 km) SW. Retrieved 2019/03/21 03:00 UTC (8 minutes ago):

LKKB 210300Z 19007KT CAVOK 01/M04 Q1034

TAF (pilot weather forecast)

Forecast is more than 12 hours old.

Closest forecast is Kbely Air Base, 17.4 nm (32.2 km) SW. Retrieved 2019/03/20 00:00 UTC (1 day ago):

TAF LKKB 202300Z 2100/2200 18005KT CAVOK TEMPO 2100/2112 22005KT BECMG 2113/2115 13004KT BECMG 2118/2120 VRB02KT